Time;durP1;ratioP1;P1;durP2;ratioP2;P2;SDS_P1;SDS_P2;PMS_P1;PMS_P2;Temp;Humidity;BMP_temperature;BMP_pressure;BME280_temperature;BME280_humidity;BME280_pressure;Samples;Min_cycle;Max_cycle;Signal;HPM_P1;HPM_P2
2021/12/01 00:00:51;;;;;;;7.78;3.45;;;10.00;99.90;;;;;;5015478;23;20011;-78
2021/12/01 00:02:53;;;;;;;2.85;2.55;;;10.10;99.90;;;;;;5014760;23;20014;-78
2021/12/01 00:04:54;;;;;;;2.78;2.58;;;10.00;99.90;;;;;;5013093;23;20015;-79
2021/12/01 00:06:54;;;;;;;1.92;1.85;;;10.10;99.90;;;;;;5014858;23;20444;-80
2021/12/01 00:08:55;;;;;;;2.42;2.33;;;10.10;99.90;;;;;;5014641;23;20107;-78
2021/12/01 00:10:56;;;;;;;3.08;2.83;;;10.10;99.90;;;;;;5012684;23;20380;-79
2021/12/01 00:12:56;;;;;;;2.03;1.92;;;10.00;99.90;;;;;;5013977;23;20019;-78
2021/12/01 00:14:57;;;;;;;3.13;3.00;;;10.10;99.90;;;;;;5015198;23;20041;-78
2021/12/01 00:16:58;;;;;;;2.78;2.58;;;10.00;99.90;;;;;;5012322;23;20085;-79
2021/12/01 00:18:59;;;;;;;2.92;2.72;;;10.00;99.90;;;;;;5015646;23;20011;-78
2021/12/01 00:20:59;;;;;;;2.05;1.95;;;10.00;99.90;;;;;;5013318;23;20011;-78
2021/12/01 00:23:00;;;;;;;3.22;3.03;;;10.00;99.90;;;;;;5013918;23;20494;-79
2021/12/01 00:25:01;;;;;;;3.65;2.80;;;10.00;99.90;;;;;;5014298;23;20018;-79
2021/12/01 00:27:02;;;;;;;2.17;2.08;;;10.00;99.90;;;;;;5015311;23;20030;-79
2021/12/01 00:29:03;;;;;;;2.22;2.13;;;10.00;99.90;;;;;;5014144;23;20285;-79
2021/12/01 00:31:05;;;;;;;2.33;2.13;;;10.10;99.90;;;;;;5016783;23;20454;-80
2021/12/01 00:33:07;;;;;;;1.70;1.60;;;10.20;99.90;;;;;;5015858;23;20014;-78
2021/12/01 00:35:09;;;;;;;4.43;2.58;;;10.10;99.90;;;;;;5016792;23;20026;-79
2021/12/01 00:37:11;;;;;;;1.70;1.70;;;10.00;99.90;;;;;;5014862;23;20034;-79
2021/12/01 00:39:11;;;;;;;1.95;1.85;;;10.10;99.90;;;;;;5016348;23;20089;-78
2021/12/01 00:41:12;;;;;;;1.92;1.83;;;10.20;99.90;;;;;;5015162;23;20078;-79
2021/12/01 00:43:17;;;;;;;2.50;1.95;;;10.10;99.90;;;;;;5014407;23;20082;-79
2021/12/01 00:45:21;;;;;;;2.33;2.22;;;10.10;99.90;;;;;;5016846;23;20455;-79
2021/12/01 00:47:30;;;;;;;2.08;1.98;;;10.20;99.90;;;;;;5016910;23;20010;-79
2021/12/01 00:49:33;;;;;;;2.55;2.35;;;10.20;99.90;;;;;;5016730;23;20011;-79
2021/12/01 00:51:34;;;;;;;1.55;1.55;;;10.10;99.90;;;;;;5015093;23;20019;-79
2021/12/01 00:53:35;;;;;;;2.25;2.15;;;10.20;99.90;;;;;;5016890;23;20033;-79
2021/12/01 00:55:35;;;;;;;1.35;1.35;;;10.20;99.90;;;;;;5014374;23;20018;-79
2021/12/01 00:57:36;;;;;;;2.05;1.95;;;10.20;99.90;;;;;;5017071;23;20158;-79
2021/12/01 00:59:37;;;;;;;1.80;1.70;;;10.20;99.90;;;;;;5016037;23;20015;-79
2021/12/01 01:01:38;;;;;;;3.33;2.42;;;10.20;99.90;;;;;;5014834;23;20045;-79
2021/12/01 01:03:39;;;;;;;2.65;2.55;;;10.30;99.90;;;;;;5016749;23;20037;-79
2021/12/01 01:05:40;;;;;;;1.77;1.70;;;10.30;99.90;;;;;;5016554;23;20011;-79
2021/12/01 01:07:41;;;;;;;1.60;1.55;;;10.30;99.90;;;;;;5014576;23;20471;-79
2021/12/01 01:09:43;;;;;;;1.48;1.48;;;10.30;99.90;;;;;;5015369;23;20722;-79
2021/12/01 01:16:25;;;;;;;3.17;2.97;;;10.20;99.90;;;;;;5016816;23;20462;-79
2021/12/01 01:18:26;;;;;;;1.60;1.50;;;10.30;99.90;;;;;;5016207;23;20095;-79
2021/12/01 01:20:27;;;;;;;2.40;2.20;;;10.30;99.90;;;;;;5016758;23;20010;-79
2021/12/01 01:22:27;;;;;;;1.88;1.80;;;10.30;99.90;;;;;;5016413;23;20015;-78
2021/12/01 01:24:28;;;;;;;1.77;1.73;;;10.30;99.90;;;;;;5014665;23;20108;-79
2021/12/01 01:26:30;;;;;;;6.68;3.40;;;10.30;99.90;;;;;;5014310;23;20018;-79
2021/12/01 01:28:31;;;;;;;2.17;2.08;;;10.20;99.90;;;;;;5016150;23;20038;-79
2021/12/01 01:30:32;;;;;;;1.88;1.55;;;10.20;99.90;;;;;;5016753;23;20086;-79
2021/12/01 01:32:34;;;;;;;1.88;1.77;;;10.20;99.90;;;;;;5016498;23;20436;-78
2021/12/01 01:34:35;;;;;;;2.58;2.47;;;10.30;99.90;;;;;;5014443;23;20018;-79
2021/12/01 01:36:35;;;;;;;1.60;1.60;;;10.30;99.90;;;;;;5014288;23;20042;-79
2021/12/01 01:38:37;;;;;;;6.10;2.58;;;10.30;99.90;;;;;;5014841;23;20066;-79
2021/12/01 01:40:38;;;;;;;2.45;2.35;;;10.20;99.90;;;;;;5015455;23;20015;-81
2021/12/01 01:42:39;;;;;;;1.77;1.67;;;10.30;99.90;;;;;;5013068;23;20023;-80
2021/12/01 01:44:40;;;;;;;2.60;2.40;;;10.30;99.90;;;;;;5015832;23;20523;-79
2021/12/01 01:46:41;;;;;;;1.55;1.55;;;10.20;99.90;;;;;;5014598;23;20022;-78
2021/12/01 01:48:47;;;;;;;1.42;1.42;;;10.30;99.90;;;;;;5016252;23;20022;-79
2021/12/01 01:50:48;;;;;;;1.38;1.38;;;10.20;99.90;;;;;;5015380;23;20014;-78
2021/12/01 01:52:49;;;;;;;11.32;2.53;;;10.30;99.90;;;;;;5014393;23;20499;-79
2021/12/01 01:54:49;;;;;;;1.25;1.25;;;10.20;99.90;;;;;;5013632;23;20018;-78
2021/12/01 01:56:50;;;;;;;1.75;1.65;;;10.30;99.90;;;;;;5012539;23;20034;-78
2021/12/01 01:58:51;;;;;;;4.43;2.65;;;10.20;99.90;;;;;;5014152;23;20062;-79
2021/12/01 02:03:23;;;;;;;2.20;2.10;;;10.20;99.90;;;;;;4960430;23;20034;-78
2021/12/01 02:05:24;;;;;;;1.67;1.67;;;10.20;99.90;;;;;;5014996;23;20019;-78
2021/12/01 02:07:24;;;;;;;1.25;1.25;;;10.20;99.90;;;;;;5014911;23;20008;-78
2021/12/01 02:09:25;;;;;;;1.60;1.50;;;10.20;99.90;;;;;;5014802;23;20015;-79
2021/12/01 02:11:28;;;;;;;1.27;1.27;;;10.20;99.90;;;;;;5014919;23;20391;-79
2021/12/01 02:13:29;;;;;;;1.40;1.40;;;10.10;99.90;;;;;;5015074;23;20019;-78
2021/12/01 02:15:30;;;;;;;1.60;1.60;;;10.10;99.90;;;;;;5014170;23;20153;-79
2021/12/01 02:17:32;;;;;;;1.63;1.63;;;10.10;99.90;;;;;;5015630;23;20404;-79
2021/12/01 02:19:37;;;;;;;1.30;1.30;;;10.10;99.90;;;;;;5016385;23;20025;-78
2021/12/01 02:21:39;;;;;;;1.25;1.25;;;10.10;99.90;;;;;;5015460;23;20492;-78
2021/12/01 02:23:44;;;;;;;1.25;1.25;;;10.10;99.90;;;;;;5016106;23;20399;-79
2021/12/01 02:25:44;;;;;;;1.40;1.40;;;10.10;99.90;;;;;;5015187;23;20042;-78
2021/12/01 02:27:45;;;;;;;1.23;1.23;;;10.10;99.90;;;;;;5014083;23;20534;-79
2021/12/01 02:29:46;;;;;;;2.58;2.47;;;10.00;99.90;;;;;;5013224;23;20019;-79
2021/12/01 02:31:47;;;;;;;1.77;1.67;;;10.00;99.90;;;;;;5015608;23;20026;-79
2021/12/01 02:33:48;;;;;;;1.40;1.40;;;10.10;99.90;;;;;;5015981;23;20007;-81
2021/12/01 02:35:50;;;;;;;1.75;1.75;;;10.00;99.90;;;;;;5015837;23;20547;-81
2021/12/01 02:37:51;;;;;;;1.30;1.30;;;10.10;99.90;;;;;;5015332;23;20447;-80
2021/12/01 02:39:52;;;;;;;1.38;1.38;;;10.10;99.90;;;;;;5013812;23;20122;-79
2021/12/01 02:41:58;;;;;;;2.05;1.95;;;10.10;99.90;;;;;;5015822;23;20014;-80
2021/12/01 02:44:01;;;;;;;1.35;1.35;;;10.00;99.90;;;;;;5013799;23;20042;-80
2021/12/01 02:46:02;;;;;;;1.50;1.50;;;9.90;99.90;;;;;;5015469;23;20010;-78
2021/12/01 02:48:03;;;;;;;1.23;1.23;;;9.90;99.90;;;;;;5015301;23;20018;-76
2021/12/01 02:50:05;;;;;;;1.98;1.88;;;9.80;99.90;;;;;;5015787;23;20007;-79
2021/12/01 02:52:06;;;;;;;1.20;1.20;;;9.80;99.90;;;;;;5015222;23;20019;-79
2021/12/01 02:54:07;;;;;;;1.10;1.10;;;9.80;99.90;;;;;;5014133;23;20031;-79
2021/12/01 02:56:08;;;;;;;1.20;1.20;;;9.80;99.90;;;;;;5013372;23;20391;-79
2021/12/01 02:58:09;;;;;;;1.30;1.30;;;9.90;99.90;;;;;;5016083;23;20091;-78
2021/12/01 03:00:10;;;;;;;1.73;1.63;;;9.70;99.90;;;;;;5015119;23;20018;-78
2021/12/01 03:02:11;;;;;;;1.30;1.30;;;9.80;99.90;;;;;;5015709;23;20959;-78
2021/12/01 03:04:14;;;;;;;1.48;1.45;;;9.70;99.90;;;;;;5015451;23;20006;-79
2021/12/01 03:06:16;;;;;;;3.30;2.97;;;9.70;99.90;;;;;;5016061;23;20014;-79
2021/12/01 03:08:19;;;;;;;1.52;1.52;;;9.70;99.90;;;;;;5013574;23;20025;-76
2021/12/01 03:10:20;;;;;;;1.20;1.20;;;9.70;99.90;;;;;;5016161;23;20010;-79
2021/12/01 03:12:21;;;;;;;1.40;1.40;;;9.70;99.90;;;;;;5013216;23;20050;-79
2021/12/01 03:14:22;;;;;;;1.30;1.30;;;9.70;99.90;;;;;;5016012;23;20110;-79
2021/12/01 03:16:23;;;;;;;2.00;1.90;;;9.70;99.90;;;;;;5015098;23;20018;-79
2021/12/01 03:18:24;;;;;;;1.70;1.65;;;9.70;99.90;;;;;;5015532;23;20010;-79
2021/12/01 03:20:24;;;;;;;1.35;1.35;;;9.60;99.90;;;;;;5013337;23;20363;-78
2021/12/01 03:22:26;;;;;;;2.95;2.70;;;9.70;99.90;;;;;;5015271;23;20110;-79
2021/12/01 03:24:32;;;;;;;1.25;1.25;;;9.60;99.90;;;;;;5013301;23;20011;-79
2021/12/01 03:26:34;;;;;;;1.45;1.45;;;9.50;99.90;;;;;;5013748;23;20022;-79
2021/12/01 03:28:35;;;;;;;1.38;1.38;;;9.50;99.90;;;;;;5015337;23;20022;-78
2021/12/01 03:30:37;;;;;;;1.27;1.27;;;9.50;99.90;;;;;;5015635;23;20007;-79
2021/12/01 03:32:39;;;;;;;1.40;1.40;;;9.50;99.90;;;;;;5015304;23;20039;-81
2021/12/01 03:34:42;;;;;;;1.40;1.40;;;9.50;99.90;;;;;;5013243;23;20015;-79
2021/12/01 03:36:42;;;;;;;1.40;1.40;;;9.50;99.90;;;;;;5013562;23;20015;-79
2021/12/01 03:38:43;;;;;;;2.95;2.08;;;9.50;99.90;;;;;;5015040;23;20455;-80
2021/12/01 03:40:44;;;;;;;2.45;2.25;;;9.60;99.90;;;;;;5015410;23;20399;-78
2021/12/01 03:42:45;;;;;;;2.45;2.35;;;9.50;99.90;;;;;;5013333;23;20463;-77
2021/12/01 03:44:45;;;;;;;1.90;1.88;;;9.40;99.90;;;;;;5014699;23;20093;-78
2021/12/01 03:46:46;;;;;;;1.92;1.90;;;9.40;99.90;;;;;;5014653;23;20015;-78
2021/12/01 03:48:47;;;;;;;1.35;1.33;;;9.40;99.90;;;;;;5013848;23;20007;-79
2021/12/01 03:50:50;;;;;;;1.35;1.35;;;9.30;99.90;;;;;;5013011;23;20019;-80
2021/12/01 03:52:50;;;;;;;1.40;1.40;;;9.30;99.90;;;;;;5015039;23;20026;-78
2021/12/01 03:54:52;;;;;;;2.25;2.15;;;9.40;99.90;;;;;;5014760;23;20392;-79
2021/12/01 03:56:53;;;;;;;2.03;1.83;;;9.40;99.90;;;;;;5007135;23;21015;-79
2021/12/01 03:58:54;;;;;;;1.50;1.45;;;9.30;99.90;;;;;;5012002;23;20014;-79
2021/12/01 04:00:54;;;;;;;1.83;1.73;;;9.30;99.90;;;;;;5016521;23;20042;-80
2021/12/01 04:02:55;;;;;;;1.73;1.70;;;9.40;99.90;;;;;;5016729;23;20006;-79
2021/12/01 04:04:56;;;;;;;1.30;1.30;;;9.40;99.90;;;;;;5015379;23;20010;-79
2021/12/01 04:06:57;;;;;;;1.40;1.40;;;9.30;99.90;;;;;;5015029;23;20469;-78
2021/12/01 04:08:57;;;;;;;1.30;1.30;;;9.30;99.90;;;;;;5015055;23;20015;-79
2021/12/01 04:10:58;;;;;;;1.88;1.80;;;9.30;99.90;;;;;;5014889;23;20015;-78
2021/12/01 04:12:59;;;;;;;1.40;1.40;;;9.30;99.90;;;;;;5016431;23;20341;-79
2021/12/01 04:15:01;;;;;;;2.20;2.05;;;9.30;99.90;;;;;;5016337;23;20582;-81
2021/12/01 04:17:03;;;;;;;1.20;1.20;;;9.30;99.90;;;;;;5016546;23;20019;-79
2021/12/01 04:19:04;;;;;;;1.30;1.30;;;9.40;99.90;;;;;;5016901;23;20046;-79
2021/12/01 04:21:05;;;;;;;1.50;1.50;;;9.30;99.90;;;;;;5016823;23;20050;-78
2021/12/01 04:23:06;;;;;;;1.70;1.60;;;9.30;99.90;;;;;;5016763;23;20022;-79
2021/12/01 04:25:08;;;;;;;2.15;2.05;;;9.30;99.90;;;;;;5014532;23;20091;-80
2021/12/01 04:27:10;;;;;;;1.20;1.20;;;9.30;99.90;;;;;;5014887;23;20014;-79
2021/12/01 04:29:11;;;;;;;1.35;1.35;;;9.30;99.90;;;;;;5016340;23;20470;-78
2021/12/01 04:31:12;;;;;;;1.20;1.20;;;9.30;99.90;;;;;;5017062;23;20098;-78
2021/12/01 04:33:13;;;;;;;1.75;1.65;;;9.20;99.90;;;;;;5015798;23;20070;-79
2021/12/01 04:35:17;;;;;;;1.20;1.20;;;9.20;99.90;;;;;;5015044;23;20015;-78
2021/12/01 04:37:18;;;;;;;1.20;1.20;;;9.10;99.90;;;;;;5016410;23;20014;-79
2021/12/01 04:39:19;;;;;;;2.05;1.95;;;9.10;99.90;;;;;;5014901;23;20037;-79
2021/12/01 04:41:22;;;;;;;1.88;1.80;;;9.00;99.90;;;;;;5016517;23;20019;-79
2021/12/01 04:43:22;;;;;;;1.55;1.55;;;9.00;99.90;;;;;;5015312;23;20077;-80
2021/12/01 04:45:25;;;;;;;1.40;1.40;;;9.00;99.90;;;;;;5016001;23;20015;-79
2021/12/01 04:47:29;;;;;;;1.30;1.30;;;9.00;99.90;;;;;;5015066;23;20038;-79
2021/12/01 04:49:32;;;;;;;1.42;1.42;;;9.00;99.90;;;;;;5016541;23;20062;-79
2021/12/01 04:51:32;;;;;;;1.20;1.20;;;9.00;99.90;;;;;;5015151;23;20106;-80
2021/12/01 04:53:33;;;;;;;1.92;1.83;;;8.90;99.90;;;;;;5016547;23;20023;-79
2021/12/01 04:55:34;;;;;;;1.40;1.40;;;8.80;99.90;;;;;;5014971;23;20011;-78
2021/12/01 04:57:37;;;;;;;1.42;1.42;;;8.90;99.90;;;;;;5016323;23;20014;-78
2021/12/01 04:59:38;;;;;;;1.83;1.73;;;8.80;99.90;;;;;;5014388;23;20094;-77
2021/12/01 05:01:40;;;;;;;1.35;1.35;;;8.80;99.90;;;;;;5016455;23;20015;-77
2021/12/01 05:03:41;;;;;;;1.30;1.30;;;8.80;99.90;;;;;;5016611;23;20050;-79
2021/12/01 05:05:41;;;;;;;1.23;1.23;;;8.80;99.90;;;;;;5016126;23;20018;-79
2021/12/01 05:07:43;;;;;;;1.58;1.58;;;8.70;99.90;;;;;;5016754;23;20022;-79
2021/12/01 05:09:43;;;;;;;1.20;1.20;;;8.80;99.90;;;;;;5016352;23;20017;-79
2021/12/01 05:11:44;;;;;;;1.63;1.63;;;8.70;99.90;;;;;;5013371;23;20016;-79
2021/12/01 05:13:45;;;;;;;1.13;1.13;;;8.70;99.90;;;;;;5015332;23;20017;-79
2021/12/01 05:15:45;;;;;;;2.08;1.98;;;8.70;99.90;;;;;;5015650;23;20007;-78
2021/12/01 05:17:46;;;;;;;1.20;1.20;;;8.70;99.90;;;;;;5016320;23;20017;-78
2021/12/01 05:19:48;;;;;;;1.38;1.38;;;8.70;99.90;;;;;;5016046;23;20015;-78
2021/12/01 05:21:48;;;;;;;2.58;2.42;;;8.80;99.90;;;;;;5014988;23;20010;-79
2021/12/01 05:23:49;;;;;;;2.25;2.15;;;8.80;99.90;;;;;;5014322;23;20011;-78
2021/12/01 05:25:50;;;;;;;1.40;1.40;;;8.80;99.90;;;;;;5016434;23;20091;-80
2021/12/01 05:27:50;;;;;;;1.30;1.30;;;8.80;99.90;;;;;;5015252;23;20011;-78
2021/12/01 05:29:51;;;;;;;2.20;2.10;;;8.80;99.90;;;;;;5016156;23;20062;-79
2021/12/01 05:31:54;;;;;;;1.20;1.20;;;8.70;99.90;;;;;;5013799;23;20078;-79
2021/12/01 05:33:54;;;;;;;1.42;1.42;;;8.80;99.90;;;;;;5014493;23;20010;-78
2021/12/01 05:35:55;;;;;;;1.48;1.48;;;8.70;99.90;;;;;;5015983;23;20565;-78
2021/12/01 05:37:56;;;;;;;1.50;1.50;;;8.70;99.90;;;;;;5014770;23;20011;-80
2021/12/01 05:39:57;;;;;;;1.40;1.40;;;8.60;99.90;;;;;;5014303;23;20018;-79
2021/12/01 05:41:58;;;;;;;1.55;1.55;;;8.70;99.90;;;;;;5014109;23;20361;-79
2021/12/01 05:43:58;;;;;;;1.40;1.40;;;8.70;99.90;;;;;;5014173;23;20062;-79
2021/12/01 05:45:59;;;;;;;1.60;1.60;;;8.70;99.90;;;;;;5012082;23;20566;-79
2021/12/01 05:48:00;;;;;;;1.60;1.60;;;8.70;99.90;;;;;;5013738;23;20097;-79
2021/12/01 05:50:01;;;;;;;1.33;1.33;;;8.60;99.90;;;;;;5015114;23;20037;-78
2021/12/01 05:52:01;;;;;;;1.30;1.30;;;8.70;99.90;;;;;;5012133;23;20019;-79
2021/12/01 05:54:03;;;;;;;1.40;1.40;;;8.60;99.90;;;;;;5012286;23;20671;-80
2021/12/01 05:56:04;;;;;;;1.40;1.40;;;8.70;99.90;;;;;;5014648;23;20094;-81
2021/12/01 05:58:05;;;;;;;5.35;2.75;;;8.70;99.90;;;;;;5008582;23;20007;-81
2021/12/01 06:00:10;;;;;;;1.42;1.42;;;8.70;99.90;;;;;;5013948;23;20013;-79
2021/12/01 06:02:11;;;;;;;2.13;2.03;;;8.70;99.90;;;;;;5014186;23;20149;-79
2021/12/01 06:04:12;;;;;;;1.77;1.73;;;8.60;99.90;;;;;;5012355;23;20043;-80
2021/12/01 06:06:13;;;;;;;1.40;1.40;;;8.70;99.90;;;;;;5012461;23;20491;-80
2021/12/01 06:08:14;;;;;;;1.30;1.30;;;8.60;99.90;;;;;;5014915;23;20010;-80
2021/12/01 06:10:16;;;;;;;1.30;1.30;;;8.60;99.90;;;;;;5013441;23;20086;-80
2021/12/01 06:12:17;;;;;;;2.75;2.63;;;8.60;99.90;;;;;;5011572;23;20337;-79
2021/12/01 06:14:18;;;;;;;1.40;1.40;;;8.60;99.90;;;;;;5011575;23;20022;-80
2021/12/01 06:16:21;;;;;;;1.40;1.40;;;8.60;99.90;;;;;;5013903;23;20473;-80
2021/12/01 06:18:22;;;;;;;1.60;1.60;;;8.60;99.90;;;;;;5011428;23;20554;-81
2021/12/01 06:20:22;;;;;;;1.70;1.70;;;8.50;99.90;;;;;;5013147;23;20612;-80
2021/12/01 06:22:23;;;;;;;1.50;1.50;;;8.60;99.90;;;;;;5011836;23;20294;-80
2021/12/01 06:24:24;;;;;;;1.48;1.48;;;8.50;99.90;;;;;;5014247;23;20017;-82
2021/12/01 06:26:24;;;;;;;1.50;1.50;;;8.60;99.90;;;;;;5013727;23;20007;-80
2021/12/01 06:28:25;;;;;;;1.38;1.38;;;8.60;99.90;;;;;;5015227;23;20752;-80
2021/12/01 06:30:31;;;;;;;1.40;1.40;;;8.60;99.90;;;;;;5013896;23;20018;-81
2021/12/01 06:32:31;;;;;;;1.23;1.23;;;8.60;99.90;;;;;;5015016;23;20026;-80
2021/12/01 06:34:32;;;;;;;1.40;1.40;;;8.60;99.90;;;;;;5015238;23;20138;-82
2021/12/01 06:36:33;;;;;;;1.80;1.80;;;8.60;99.90;;;;;;5014981;23;20051;-81
2021/12/01 06:38:34;;;;;;;1.48;1.48;;;8.60;99.90;;;;;;5014231;23;20109;-81
2021/12/01 06:40:34;;;;;;;1.67;1.58;;;8.50;99.90;;;;;;5012548;23;20019;-81
2021/12/01 06:42:35;;;;;;;1.48;1.48;;;8.50;99.90;;;;;;4967480;23;1085798;-82
2021/12/01 06:44:36;;;;;;;1.55;1.55;;;8.60;99.90;;;;;;5012810;23;20050;-80
2021/12/01 06:46:38;;;;;;;1.20;1.20;;;8.70;99.90;;;;;;5013082;23;20086;-80
2021/12/01 06:48:39;;;;;;;1.60;1.60;;;8.60;99.90;;;;;;5014337;23;20018;-81
2021/12/01 06:50:40;;;;;;;1.30;1.30;;;8.60;99.90;;;;;;5012978;23;20010;-81
2021/12/01 06:52:41;;;;;;;1.70;1.60;;;8.60;99.90;;;;;;5014321;23;20365;-80
2021/12/01 06:54:42;;;;;;;1.30;1.30;;;8.60;99.90;;;;;;5014585;23;20034;-81
2021/12/01 06:56:42;;;;;;;1.20;1.20;;;8.50;99.90;;;;;;5014968;23;20066;-81
2021/12/01 06:58:44;;;;;;;1.42;1.42;;;8.60;99.90;;;;;;5015540;23;20094;-80
2021/12/01 07:00:44;;;;;;;1.40;1.40;;;8.50;99.90;;;;;;5013109;23;20022;-80
2021/12/01 07:02:46;;;;;;;3.67;3.38;;;8.70;99.90;;;;;;5013967;23;20019;-81
2021/12/01 07:04:46;;;;;;;1.65;1.65;;;8.70;99.90;;;;;;5013938;23;20109;-80
2021/12/01 07:06:47;;;;;;;1.40;1.40;;;8.60;99.90;;;;;;5015534;23;20018;-80
2021/12/01 07:08:55;;;;;;;2.00;1.90;;;8.60;99.90;;;;;;5013128;23;20640;-79
2021/12/01 07:10:56;;;;;;;1.33;1.33;;;8.60;99.90;;;;;;5013897;23;20034;-79
2021/12/01 07:12:57;;;;;;;1.30;1.30;;;8.60;99.90;;;;;;5014581;23;20041;-80
2021/12/01 07:14:58;;;;;;;1.23;1.23;;;8.60;99.90;;;;;;5013872;23;20023;-79
2021/12/01 07:16:58;;;;;;;2.75;1.88;;;8.60;99.90;;;;;;5014268;23;20030;-80
2021/12/01 07:18:59;;;;;;;1.40;1.40;;;8.70;99.90;;;;;;5012906;23;20015;-79
2021/12/01 07:21:00;;;;;;;1.60;1.58;;;8.80;99.90;;;;;;5014679;23;20412;-78
2021/12/01 07:23:02;;;;;;;1.60;1.60;;;8.70;99.90;;;;;;5013016;23;20363;-81
2021/12/01 07:25:04;;;;;;;1.60;1.60;;;8.70;99.90;;;;;;5012560;23;20429;-80
2021/12/01 07:27:05;;;;;;;1.58;1.58;;;8.70;99.90;;;;;;5015340;23;20011;-81
2021/12/01 07:29:06;;;;;;;1.65;1.58;;;8.80;99.90;;;;;;5014808;23;20018;-81
2021/12/01 07:31:06;;;;;;;1.42;1.42;;;8.80;99.90;;;;;;5013764;23;20018;-79
2021/12/01 07:33:07;;;;;;;2.40;1.90;;;8.80;99.90;;;;;;5011482;23;20019;-80
2021/12/01 07:35:09;;;;;;;1.40;1.40;;;8.80;99.90;;;;;;5004191;23;20015;-80
2021/12/01 07:37:14;;;;;;;1.65;1.65;;;8.80;99.90;;;;;;5007158;23;20022;-79
2021/12/01 07:39:15;;;;;;;1.70;1.70;;;8.80;99.90;;;;;;5005034;23;20014;-79
2021/12/01 07:41:19;;;;;;;2.63;2.35;;;8.80;99.90;;;;;;5006403;23;20029;-78
2021/12/01 07:43:20;;;;;;;1.50;1.50;;;8.90;99.90;;;;;;5006239;23;20022;-79
2021/12/01 07:45:21;;;;;;;1.48;1.48;;;8.80;99.90;;;;;;5006130;23;20475;-78
2021/12/01 07:47:21;;;;;;;2.05;1.95;;;8.90;99.90;;;;;;5006225;23;20015;-79
2021/12/01 07:49:22;;;;;;;8.23;4.13;;;8.90;99.90;;;;;;5006994;23;20015;-79
2021/12/01 07:51:23;;;;;;;1.52;1.52;;;8.90;99.90;;;;;;5006214;23;20089;-80
2021/12/01 07:53:23;;;;;;;2.30;2.20;;;9.00;99.90;;;;;;5004387;23;20019;-79
2021/12/01 07:55:24;;;;;;;2.30;2.20;;;9.00;99.90;;;;;;5005676;23;20014;-78
2021/12/01 07:57:25;;;;;;;1.50;1.50;;;9.10;99.90;;;;;;5004786;23;20101;-79
2021/12/01 07:59:25;;;;;;;2.05;1.95;;;9.10;99.90;;;;;;5004371;23;20914;-79
2021/12/01 08:01:26;;;;;;;1.77;1.70;;;9.00;99.90;;;;;;5006055;23;20090;-81
2021/12/01 08:03:27;;;;;;;2.45;2.35;;;9.10;99.90;;;;;;5005791;23;20323;-80
2021/12/01 08:05:27;;;;;;;2.05;1.95;;;9.10;99.90;;;;;;5006656;23;20011;-81
2021/12/01 08:07:28;;;;;;;1.40;1.40;;;9.20;99.90;;;;;;5005243;23;20328;-79
2021/12/01 08:09:29;;;;;;;3.63;3.30;;;9.20;99.90;;;;;;5006635;23;21095;-81
2021/12/01 08:11:29;;;;;;;1.52;1.52;;;9.30;99.90;;;;;;5003990;23;20475;-81
2021/12/01 08:13:30;;;;;;;2.13;2.03;;;9.30;99.90;;;;;;5004151;23;20042;-79
2021/12/01 08:15:31;;;;;;;1.40;1.40;;;9.30;99.90;;;;;;5004404;23;20067;-79
2021/12/01 08:17:32;;;;;;;1.50;1.50;;;9.30;99.90;;;;;;5007204;23;20101;-81
2021/12/01 08:19:33;;;;;;;1.35;1.35;;;9.40;99.90;;;;;;5006028;23;20022;-80
2021/12/01 08:21:34;;;;;;;4.53;2.28;;;9.40;99.90;;;;;;5005376;23;20006;-81
2021/12/01 08:23:35;;;;;;;1.63;1.63;;;9.50;99.90;;;;;;5004055;23;20011;-79
2021/12/01 08:25:36;;;;;;;1.85;1.77;;;9.50;99.90;;;;;;5007609;23;20017;-80
2021/12/01 08:27:36;;;;;;;1.58;1.58;;;9.50;99.90;;;;;;5006756;23;20010;-79
2021/12/01 08:29:37;;;;;;;2.00;1.90;;;9.50;99.90;;;;;;5007539;23;20015;-81
2021/12/01 08:31:39;;;;;;;1.88;1.77;;;9.50;99.90;;;;;;5003788;23;20019;-79
2021/12/01 08:33:41;;;;;;;1.98;1.88;;;9.50;99.90;;;;;;5006918;23;20344;-80
2021/12/01 08:35:41;;;;;;;1.27;1.27;;;9.40;99.90;;;;;;5006780;23;20015;-80
2021/12/01 08:37:42;;;;;;;1.27;1.27;;;9.40;99.90;;;;;;5004550;23;20022;-81
2021/12/01 08:39:43;;;;;;;2.20;1.90;;;9.40;99.90;;;;;;5006310;23;20451;-81
2021/12/01 08:41:44;;;;;;;1.25;1.25;;;9.40;99.90;;;;;;5006341;23;20022;-79
2021/12/01 08:43:46;;;;;;;1.60;1.58;;;9.40;99.90;;;;;;5004379;23;20106;-81
2021/12/01 08:45:47;;;;;;;11.68;8.38;;;9.40;99.90;;;;;;5006328;23;20011;-81
2021/12/01 08:47:49;;;;;;;15.98;8.05;;;9.40;99.90;;;;;;5006833;23;20102;-80
2021/12/01 08:49:51;;;;;;;14.30;8.88;;;9.40;99.90;;;;;;5007793;23;20033;-79
2021/12/01 08:51:52;;;;;;;9.93;6.03;;;9.30;99.90;;;;;;5008123;23;20045;-82
2021/12/01 08:53:53;;;;;;;11.52;6.13;;;9.30;99.90;;;;;;5006027;23;20011;-81
2021/12/01 08:55:53;;;;;;;12.00;6.18;;;9.30;99.90;;;;;;5006119;23;20086;-81
2021/12/01 08:57:54;;;;;;;15.00;5.22;;;9.30;99.90;;;;;;5005880;23;20011;-81
2021/12/01 08:59:55;;;;;;;13.80;6.63;;;9.20;99.90;;;;;;5008171;23;20007;-81
2021/12/01 09:01:56;;;;;;;6.72;4.22;;;9.20;99.90;;;;;;5005174;23;20042;-78
2021/12/01 09:03:56;;;;;;;3.88;2.83;;;9.20;99.90;;;;;;5006300;23;20130;-79
2021/12/01 09:05:57;;;;;;;8.50;4.53;;;9.00;99.90;;;;;;5007481;23;20007;-79
2021/12/01 09:07:58;;;;;;;5.70;3.95;;;8.90;99.90;;;;;;5008157;23;20025;-80
2021/12/01 09:09:58;;;;;;;9.10;5.15;;;9.00;99.90;;;;;;5007839;23;20094;-80
2021/12/01 09:12:02;;;;;;;7.80;4.07;;;9.00;99.90;;;;;;5006380;23;20392;-80
2021/12/01 09:14:03;;;;;;;9.98;4.03;;;9.00;99.90;;;;;;5006985;23;20059;-78
2021/12/01 09:16:05;;;;;;;8.43;4.10;;;9.00;99.90;;;;;;5008271;23;20348;-79
2021/12/01 09:18:06;;;;;;;14.52;5.35;;;9.00;99.90;;;;;;5012466;23;20007;-80
2021/12/01 09:20:07;;;;;;;8.60;3.85;;;9.00;99.90;;;;;;5015671;23;20018;-80
2021/12/01 09:22:08;;;;;;;10.65;4.07;;;9.10;99.90;;;;;;5008239;23;20098;-81
2021/12/01 09:24:09;;;;;;;11.77;3.20;;;9.10;99.90;;;;;;5008368;23;20018;-78
2021/12/01 09:26:09;;;;;;;13.68;4.32;;;9.10;99.90;;;;;;5006592;23;20448;-79
2021/12/01 09:28:12;;;;;;;6.65;2.72;;;9.10;99.90;;;;;;5007934;23;20011;-81
2021/12/01 09:30:16;;;;;;;15.70;3.92;;;9.10;99.90;;;;;;5006021;23;20042;-79
2021/12/01 09:32:16;;;;;;;15.32;4.13;;;9.10;99.90;;;;;;5007330;23;20102;-81
2021/12/01 09:34:17;;;;;;;11.25;3.40;;;9.00;99.90;;;;;;5005597;23;20011;-80
2021/12/01 09:36:18;;;;;;;8.73;2.55;;;9.10;99.90;;;;;;5005328;23;20138;-80
2021/12/01 09:38:19;;;;;;;4.05;2.70;;;9.00;99.90;;;;;;5006990;23;20007;-80
2021/12/01 09:40:20;;;;;;;11.45;3.13;;;9.00;99.90;;;;;;5007515;23;20340;-80
2021/12/01 09:42:21;;;;;;;18.08;5.50;;;8.90;99.90;;;;;;5007267;23;20113;-80
2021/12/01 09:44:22;;;;;;;11.35;4.05;;;8.90;99.90;;;;;;5007186;23;20022;-81
2021/12/01 09:46:23;;;;;;;13.90;4.20;;;8.90;99.90;;;;;;5005623;23;20011;-80
2021/12/01 09:48:25;;;;;;;10.30;3.35;;;8.90;99.90;;;;;;5004156;23;20122;-81
2021/12/01 09:50:26;;;;;;;7.63;3.00;;;9.00;99.90;;;;;;5006896;23;20007;-79
2021/12/01 09:52:26;;;;;;;9.27;2.90;;;9.10;99.90;;;;;;5006222;23;20062;-80
2021/12/01 09:54:27;;;;;;;17.77;4.90;;;9.10;99.90;;;;;;5007244;23;20344;-82
2021/12/01 09:56:29;;;;;;;9.25;3.58;;;9.10;99.90;;;;;;5004619;23;20021;-80
2021/12/01 09:58:31;;;;;;;13.60;5.57;;;9.00;99.90;;;;;;5006962;23;20019;-80
2021/12/01 10:00:35;;;;;;;8.23;3.53;;;8.90;99.90;;;;;;5006575;23;20034;-80
2021/12/01 10:02:35;;;;;;;;;;;8.80;99.90;;;;;;5007332;23;21108;-81
2021/12/01 10:04:36;;;;;;;6.18;3.30;;;8.80;99.90;;;;;;5004816;23;19941;-80
2021/12/01 10:06:36;;;;;;;18.65;3.35;;;8.80;99.90;;;;;;5006418;23;20102;-79
2021/12/01 10:08:43;;;;;;;18.45;3.97;;;8.70;99.90;;;;;;5006587;23;20012;-81
2021/12/01 10:10:44;;;;;;;11.55;3.53;;;8.70;99.90;;;;;;5006951;23;20371;-79
2021/12/01 10:12:48;;;;;;;12.48;3.88;;;8.70;99.90;;;;;;5004459;23;20019;-79
2021/12/01 10:14:51;;;;;;;8.32;2.70;;;8.70;99.90;;;;;;5006625;23;20011;-80
2021/12/01 10:16:53;;;;;;;7.35;3.10;;;8.80;99.90;;;;;;5005665;23;20403;-80
2021/12/01 10:18:56;;;;;;;14.65;3.55;;;8.70;99.90;;;;;;5006102;23;20094;-80
2021/12/01 10:21:02;;;;;;;6.57;3.10;;;8.70;99.90;;;;;;5003482;23;20010;-80
2021/12/01 10:23:10;;;;;;;8.00;2.90;;;8.70;99.90;;;;;;5007518;23;20014;-79
2021/12/01 10:25:29;;;;;;;5.93;2.33;;;8.70;99.90;;;;;;5005061;23;20022;-79
2021/12/01 10:27:37;;;;;;;5.25;2.30;;;8.50;99.90;;;;;;5007663;23;20011;-79
2021/12/01 10:29:48;;;;;;;12.57;3.38;;;8.50;99.90;;;;;;5005429;23;20101;-80
2021/12/01 10:32:06;;;;;;;5.53;2.78;;;8.40;99.90;;;;;;5006745;23;20039;-78
2021/12/01 10:34:19;;;;;;;8.73;2.72;;;8.40;99.90;;;;;;5007167;23;20112;-79
2021/12/01 10:36:25;;;;;;;9.77;4.03;;;8.40;99.90;;;;;;5007371;23;20487;-79
2021/12/01 10:38:29;;;;;;;10.52;3.85;;;8.40;99.90;;;;;;5007360;23;20527;-78
2021/12/01 10:40:30;;;;;;;9.63;3.30;;;8.40;99.90;;;;;;5006941;23;20070;-79
2021/12/01 10:42:31;;;;;;;9.25;5.32;;;8.50;99.90;;;;;;5007296;23;20015;-81
2021/12/01 10:44:33;;;;;;;7.65;2.97;;;8.70;99.90;;;;;;5007023;23;20030;-79